sensor_id;sensor_type;location;lat;lon;timestamp;P1;durP1;ratioP1;P2;durP2;ratioP2
22480;SDS011;11407;56.964;-2.212;2023-07-29T00:00:46;4.40;;;2.63;;
22480;SDS011;11407;56.964;-2.212;2023-07-29T00:03:11;4.00;;;3.00;;
22480;SDS011;11407;56.964;-2.212;2023-07-29T00:05:37;5.17;;;2.50;;
22480;SDS011;11407;56.964;-2.212;2023-07-29T00:08:02;8.17;;;3.60;;
22480;SDS011;11407;56.964;-2.212;2023-07-29T00:10:28;4.60;;;2.80;;
22480;SDS011;11407;56.964;-2.212;2023-07-29T00:12:53;4.40;;;2.63;;
22480;SDS011;11407;56.964;-2.212;2023-07-29T00:15:18;5.93;;;2.73;;
22480;SDS011;11407;56.964;-2.212;2023-07-29T00:17:44;5.07;;;2.50;;
22480;SDS011;11407;56.964;-2.212;2023-07-29T00:20:09;2.93;;;2.33;;
22480;SDS011;11407;56.964;-2.212;2023-07-29T00:22:34;4.03;;;2.43;;
22480;SDS011;11407;56.964;-2.212;2023-07-29T00:24:59;4.10;;;2.83;;
22480;SDS011;11407;56.964;-2.212;2023-07-29T00:27:25;3.10;;;2.40;;
22480;SDS011;11407;56.964;-2.212;2023-07-29T00:29:50;4.23;;;2.60;;
22480;SDS011;11407;56.964;-2.212;2023-07-29T00:32:15;2.60;;;2.40;;
22480;SDS011;11407;56.964;-2.212;2023-07-29T00:34:41;6.07;;;2.43;;
22480;SDS011;11407;56.964;-2.212;2023-07-29T00:37:06;4.30;;;2.33;;
22480;SDS011;11407;56.964;-2.212;2023-07-29T00:39:31;4.63;;;2.70;;
22480;SDS011;11407;56.964;-2.212;2023-07-29T00:41:57;3.57;;;2.67;;
22480;SDS011;11407;56.964;-2.212;2023-07-29T00:44:22;4.27;;;2.77;;
22480;SDS011;11407;56.964;-2.212;2023-07-29T00:46:47;5.00;;;2.70;;
22480;SDS011;11407;56.964;-2.212;2023-07-29T00:49:14;3.97;;;2.80;;
22480;SDS011;11407;56.964;-2.212;2023-07-29T00:51:40;3.60;;;2.67;;
22480;SDS011;11407;56.964;-2.212;2023-07-29T00:54:05;2.87;;;2.23;;
22480;SDS011;11407;56.964;-2.212;2023-07-29T00:56:30;5.03;;;3.00;;
22480;SDS011;11407;56.964;-2.212;2023-07-29T00:58:55;5.80;;;2.30;;
22480;SDS011;11407;56.964;-2.212;2023-07-29T01:01:25;4.67;;;2.40;;
22480;SDS011;11407;56.964;-2.212;2023-07-29T01:03:50;5.63;;;2.50;;
22480;SDS011;11407;56.964;-2.212;2023-07-29T01:08:46;3.40;;;2.83;;
22480;SDS011;11407;56.964;-2.212;2023-07-29T01:11:17;3.73;;;2.50;;
22480;SDS011;11407;56.964;-2.212;2023-07-29T01:14:05;2.87;;;2.57;;
22480;SDS011;11407;56.964;-2.212;2023-07-29T01:16:36;5.17;;;2.60;;
22480;SDS011;11407;56.964;-2.212;2023-07-29T01:19:05;4.83;;;2.40;;
22480;SDS011;11407;56.964;-2.212;2023-07-29T01:21:32;5.27;;;2.80;;
22480;SDS011;11407;56.964;-2.212;2023-07-29T01:23:58;3.53;;;2.43;;
22480;SDS011;11407;56.964;-2.212;2023-07-29T01:26:24;3.90;;;2.30;;
22480;SDS011;11407;56.964;-2.212;2023-07-29T01:28:49;3.20;;;2.60;;
22480;SDS011;11407;56.964;-2.212;2023-07-29T01:31:18;3.17;;;2.47;;
22480;SDS011;11407;56.964;-2.212;2023-07-29T01:33:48;3.40;;;2.40;;
22480;SDS011;11407;56.964;-2.212;2023-07-29T01:36:23;4.20;;;2.43;;
22480;SDS011;11407;56.964;-2.212;2023-07-29T01:38:50;5.30;;;2.63;;
22480;SDS011;11407;56.964;-2.212;2023-07-29T01:41:16;3.67;;;2.80;;
22480;SDS011;11407;56.964;-2.212;2023-07-29T01:43:42;2.37;;;2.17;;
22480;SDS011;11407;56.964;-2.212;2023-07-29T01:46:11;3.73;;;2.70;;
22480;SDS011;11407;56.964;-2.212;2023-07-29T01:48:37;3.90;;;2.60;;
22480;SDS011;11407;56.964;-2.212;2023-07-29T01:51:02;3.33;;;2.60;;
22480;SDS011;11407;56.964;-2.212;2023-07-29T01:53:28;2.60;;;2.30;;
22480;SDS011;11407;56.964;-2.212;2023-07-29T01:55:53;4.57;;;2.50;;
22480;SDS011;11407;56.964;-2.212;2023-07-29T01:58:18;2.67;;;2.40;;
22480;SDS011;11407;56.964;-2.212;2023-07-29T02:00:44;2.93;;;2.30;;
22480;SDS011;11407;56.964;-2.212;2023-07-29T02:03:09;3.77;;;2.43;;
22480;SDS011;11407;56.964;-2.212;2023-07-29T02:05:34;3.33;;;2.10;;
22480;SDS011;11407;56.964;-2.212;2023-07-29T02:07:59;3.77;;;2.40;;
22480;SDS011;11407;56.964;-2.212;2023-07-29T02:10:25;3.30;;;2.30;;
22480;SDS011;11407;56.964;-2.212;2023-07-29T02:12:50;3.07;;;2.40;;
22480;SDS011;11407;56.964;-2.212;2023-07-29T02:15:15;2.73;;;2.33;;
22480;SDS011;11407;56.964;-2.212;2023-07-29T02:17:41;3.90;;;2.20;;
22480;SDS011;11407;56.964;-2.212;2023-07-29T02:20:06;3.47;;;2.40;;
22480;SDS011;11407;56.964;-2.212;2023-07-29T02:22:32;3.90;;;2.30;;
22480;SDS011;11407;56.964;-2.212;2023-07-29T02:24:57;2.33;;;2.13;;
22480;SDS011;11407;56.964;-2.212;2023-07-29T02:27:23;3.30;;;2.50;;
22480;SDS011;11407;56.964;-2.212;2023-07-29T02:29:51;2.80;;;2.33;;
22480;SDS011;11407;56.964;-2.212;2023-07-29T02:32:17;2.73;;;2.30;;
22480;SDS011;11407;56.964;-2.212;2023-07-29T02:34:42;3.30;;;2.37;;
22480;SDS011;11407;56.964;-2.212;2023-07-29T02:37:07;3.40;;;2.30;;
22480;SDS011;11407;56.964;-2.212;2023-07-29T02:39:33;3.30;;;2.20;;
22480;SDS011;11407;56.964;-2.212;2023-07-29T02:41:58;4.83;;;2.60;;
22480;SDS011;11407;56.964;-2.212;2023-07-29T02:44:24;2.60;;;2.33;;
22480;SDS011;11407;56.964;-2.212;2023-07-29T02:46:49;2.40;;;2.10;;
22480;SDS011;11407;56.964;-2.212;2023-07-29T02:49:17;3.27;;;2.33;;
22480;SDS011;11407;56.964;-2.212;2023-07-29T02:51:42;3.43;;;2.10;;
22480;SDS011;11407;56.964;-2.212;2023-07-29T02:54:07;4.87;;;2.40;;
22480;SDS011;11407;56.964;-2.212;2023-07-29T02:56:32;4.13;;;2.20;;
22480;SDS011;11407;56.964;-2.212;2023-07-29T02:58:58;3.60;;;2.20;;
22480;SDS011;11407;56.964;-2.212;2023-07-29T03:01:23;3.20;;;2.20;;
22480;SDS011;11407;56.964;-2.212;2023-07-29T03:03:50;3.90;;;2.40;;
22480;SDS011;11407;56.964;-2.212;2023-07-29T03:06:15;2.70;;;2.10;;
22480;SDS011;11407;56.964;-2.212;2023-07-29T03:08:40;3.93;;;2.13;;
22480;SDS011;11407;56.964;-2.212;2023-07-29T03:11:06;3.53;;;2.17;;
22480;SDS011;11407;56.964;-2.212;2023-07-29T03:13:32;3.60;;;2.40;;
22480;SDS011;11407;56.964;-2.212;2023-07-29T03:16:04;4.23;;;2.23;;
22480;SDS011;11407;56.964;-2.212;2023-07-29T03:18:29;3.87;;;2.10;;
22480;SDS011;11407;56.964;-2.212;2023-07-29T03:20:55;3.97;;;2.20;;
22480;SDS011;11407;56.964;-2.212;2023-07-29T03:23:20;3.23;;;2.07;;
22480;SDS011;11407;56.964;-2.212;2023-07-29T03:25:48;2.23;;;2.03;;
22480;SDS011;11407;56.964;-2.212;2023-07-29T03:28:13;3.03;;;2.40;;
22480;SDS011;11407;56.964;-2.212;2023-07-29T03:30:38;2.40;;;2.20;;
22480;SDS011;11407;56.964;-2.212;2023-07-29T03:33:03;3.00;;;2.30;;
22480;SDS011;11407;56.964;-2.212;2023-07-29T03:35:29;3.90;;;2.37;;
22480;SDS011;11407;56.964;-2.212;2023-07-29T03:37:55;2.47;;;2.00;;
22480;SDS011;11407;56.964;-2.212;2023-07-29T03:40:20;3.53;;;2.00;;
22480;SDS011;11407;56.964;-2.212;2023-07-29T03:42:45;2.87;;;2.30;;
22480;SDS011;11407;56.964;-2.212;2023-07-29T03:45:11;2.73;;;2.20;;
22480;SDS011;11407;56.964;-2.212;2023-07-29T03:47:36;2.90;;;2.13;;
22480;SDS011;11407;56.964;-2.212;2023-07-29T03:50:02;2.67;;;1.87;;
22480;SDS011;11407;56.964;-2.212;2023-07-29T03:52:27;3.63;;;2.47;;
22480;SDS011;11407;56.964;-2.212;2023-07-29T03:54:52;3.90;;;2.50;;
22480;SDS011;11407;56.964;-2.212;2023-07-29T03:57:18;3.07;;;2.50;;
22480;SDS011;11407;56.964;-2.212;2023-07-29T03:59:43;2.67;;;2.20;;
22480;SDS011;11407;56.964;-2.212;2023-07-29T04:02:08;3.33;;;2.30;;
22480;SDS011;11407;56.964;-2.212;2023-07-29T04:04:34;3.63;;;2.30;;
22480;SDS011;11407;56.964;-2.212;2023-07-29T04:06:59;2.40;;;1.90;;
22480;SDS011;11407;56.964;-2.212;2023-07-29T04:09:25;3.40;;;2.10;;
22480;SDS011;11407;56.964;-2.212;2023-07-29T04:11:50;4.53;;;2.10;;
22480;SDS011;11407;56.964;-2.212;2023-07-29T04:14:16;2.87;;;2.40;;
22480;SDS011;11407;56.964;-2.212;2023-07-29T04:16:41;4.90;;;2.50;;
22480;SDS011;11407;56.964;-2.212;2023-07-29T04:19:06;2.90;;;2.40;;
22480;SDS011;11407;56.964;-2.212;2023-07-29T04:21:31;5.00;;;2.23;;
22480;SDS011;11407;56.964;-2.212;2023-07-29T04:23:57;2.80;;;2.40;;
22480;SDS011;11407;56.964;-2.212;2023-07-29T04:26:22;2.97;;;2.23;;
22480;SDS011;11407;56.964;-2.212;2023-07-29T04:28:47;4.37;;;2.50;;
22480;SDS011;11407;56.964;-2.212;2023-07-29T04:31:12;4.13;;;2.13;;
22480;SDS011;11407;56.964;-2.212;2023-07-29T04:33:38;3.60;;;2.20;;
22480;SDS011;11407;56.964;-2.212;2023-07-29T04:36:03;5.17;;;2.47;;
22480;SDS011;11407;56.964;-2.212;2023-07-29T04:38:32;2.80;;;2.20;;
22480;SDS011;11407;56.964;-2.212;2023-07-29T04:40:58;4.43;;;2.30;;
22480;SDS011;11407;56.964;-2.212;2023-07-29T04:43:26;2.97;;;2.40;;
22480;SDS011;11407;56.964;-2.212;2023-07-29T04:45:52;2.93;;;2.33;;
22480;SDS011;11407;56.964;-2.212;2023-07-29T04:48:17;3.73;;;2.43;;
22480;SDS011;11407;56.964;-2.212;2023-07-29T04:50:42;3.60;;;2.00;;
22480;SDS011;11407;56.964;-2.212;2023-07-29T04:53:07;3.17;;;2.20;;
22480;SDS011;11407;56.964;-2.212;2023-07-29T04:55:33;3.43;;;2.60;;
22480;SDS011;11407;56.964;-2.212;2023-07-29T04:57:58;3.10;;;2.43;;
22480;SDS011;11407;56.964;-2.212;2023-07-29T05:00:25;3.30;;;2.57;;
22480;SDS011;11407;56.964;-2.212;2023-07-29T05:02:50;3.17;;;2.23;;
22480;SDS011;11407;56.964;-2.212;2023-07-29T05:05:16;2.70;;;2.50;;
22480;SDS011;11407;56.964;-2.212;2023-07-29T05:07:41;3.00;;;2.33;;
22480;SDS011;11407;56.964;-2.212;2023-07-29T05:10:07;4.67;;;2.30;;
22480;SDS011;11407;56.964;-2.212;2023-07-29T05:12:32;2.40;;;2.20;;
22480;SDS011;11407;56.964;-2.212;2023-07-29T05:14:57;5.03;;;2.40;;
22480;SDS011;11407;56.964;-2.212;2023-07-29T05:17:23;3.03;;;2.70;;
22480;SDS011;11407;56.964;-2.212;2023-07-29T05:19:48;3.50;;;2.57;;
22480;SDS011;11407;56.964;-2.212;2023-07-29T05:22:14;3.10;;;2.33;;
22480;SDS011;11407;56.964;-2.212;2023-07-29T05:24:39;3.33;;;2.27;;
22480;SDS011;11407;56.964;-2.212;2023-07-29T05:27:04;2.77;;;2.00;;
22480;SDS011;11407;56.964;-2.212;2023-07-29T05:29:30;2.67;;;2.03;;
22480;SDS011;11407;56.964;-2.212;2023-07-29T05:31:55;2.70;;;2.20;;
22480;SDS011;11407;56.964;-2.212;2023-07-29T05:34:22;3.13;;;2.17;;
22480;SDS011;11407;56.964;-2.212;2023-07-29T05:36:47;3.30;;;1.90;;
22480;SDS011;11407;56.964;-2.212;2023-07-29T05:39:12;2.20;;;2.00;;
22480;SDS011;11407;56.964;-2.212;2023-07-29T05:41:37;2.80;;;2.10;;
22480;SDS011;11407;56.964;-2.212;2023-07-29T05:44:03;3.63;;;2.37;;
22480;SDS011;11407;56.964;-2.212;2023-07-29T05:46:28;2.53;;;1.70;;
22480;SDS011;11407;56.964;-2.212;2023-07-29T05:48:53;4.10;;;2.20;;
22480;SDS011;11407;56.964;-2.212;2023-07-29T05:51:19;3.63;;;2.00;;
22480;SDS011;11407;56.964;-2.212;2023-07-29T05:53:44;3.90;;;2.20;;
22480;SDS011;11407;56.964;-2.212;2023-07-29T05:56:09;3.20;;;2.17;;
22480;SDS011;11407;56.964;-2.212;2023-07-29T05:58:35;3.67;;;2.00;;
22480;SDS011;11407;56.964;-2.212;2023-07-29T06:01:00;7.10;;;2.10;;
22480;SDS011;11407;56.964;-2.212;2023-07-29T06:03:26;4.83;;;2.20;;
22480;SDS011;11407;56.964;-2.212;2023-07-29T06:05:51;3.77;;;1.83;;
22480;SDS011;11407;56.964;-2.212;2023-07-29T06:08:17;3.87;;;2.00;;
22480;SDS011;11407;56.964;-2.212;2023-07-29T06:10:42;3.57;;;1.83;;
22480;SDS011;11407;56.964;-2.212;2023-07-29T06:13:07;6.57;;;1.90;;
22480;SDS011;11407;56.964;-2.212;2023-07-29T06:15:33;4.73;;;2.20;;
22480;SDS011;11407;56.964;-2.212;2023-07-29T06:17:58;4.07;;;1.80;;
22480;SDS011;11407;56.964;-2.212;2023-07-29T06:20:23;4.23;;;2.13;;
22480;SDS011;11407;56.964;-2.212;2023-07-29T06:22:49;4.17;;;2.03;;
22480;SDS011;11407;56.964;-2.212;2023-07-29T06:25:14;5.30;;;2.30;;
22480;SDS011;11407;56.964;-2.212;2023-07-29T06:27:39;4.67;;;1.90;;
22480;SDS011;11407;56.964;-2.212;2023-07-29T06:30:05;7.30;;;2.13;;
22480;SDS011;11407;56.964;-2.212;2023-07-29T06:32:30;7.37;;;2.00;;
22480;SDS011;11407;56.964;-2.212;2023-07-29T06:34:56;5.23;;;2.03;;
22480;SDS011;11407;56.964;-2.212;2023-07-29T06:37:21;6.07;;;2.23;;
22480;SDS011;11407;56.964;-2.212;2023-07-29T06:39:46;7.07;;;2.37;;
22480;SDS011;11407;56.964;-2.212;2023-07-29T06:42:12;5.13;;;2.27;;
22480;SDS011;11407;56.964;-2.212;2023-07-29T06:44:37;4.03;;;2.07;;
22480;SDS011;11407;56.964;-2.212;2023-07-29T06:47:02;5.03;;;2.13;;
22480;SDS011;11407;56.964;-2.212;2023-07-29T06:49:28;4.00;;;2.20;;
22480;SDS011;11407;56.964;-2.212;2023-07-29T06:51:53;7.47;;;2.60;;
22480;SDS011;11407;56.964;-2.212;2023-07-29T06:54:18;6.37;;;2.10;;
22480;SDS011;11407;56.964;-2.212;2023-07-29T06:56:43;7.47;;;2.37;;
22480;SDS011;11407;56.964;-2.212;2023-07-29T06:59:09;5.03;;;1.80;;
22480;SDS011;11407;56.964;-2.212;2023-07-29T07:01:34;7.37;;;1.83;;
22480;SDS011;11407;56.964;-2.212;2023-07-29T07:03:59;7.77;;;2.43;;
22480;SDS011;11407;56.964;-2.212;2023-07-29T07:06:26;5.23;;;2.10;;
22480;SDS011;11407;56.964;-2.212;2023-07-29T07:08:51;5.20;;;2.27;;
22480;SDS011;11407;56.964;-2.212;2023-07-29T07:11:17;5.57;;;2.07;;
22480;SDS011;11407;56.964;-2.212;2023-07-29T07:13:42;5.40;;;2.00;;
22480;SDS011;11407;56.964;-2.212;2023-07-29T07:16:08;5.97;;;2.23;;
22480;SDS011;11407;56.964;-2.212;2023-07-29T07:18:33;3.87;;;2.00;;
22480;SDS011;11407;56.964;-2.212;2023-07-29T07:20:58;4.47;;;1.93;;
22480;SDS011;11407;56.964;-2.212;2023-07-29T07:23:23;4.43;;;2.07;;
22480;SDS011;11407;56.964;-2.212;2023-07-29T07:25:49;3.57;;;2.07;;
22480;SDS011;11407;56.964;-2.212;2023-07-29T07:28:14;10.57;;;2.50;;
22480;SDS011;11407;56.964;-2.212;2023-07-29T07:30:40;5.40;;;2.13;;
22480;SDS011;11407;56.964;-2.212;2023-07-29T07:33:06;8.17;;;2.20;;
22480;SDS011;11407;56.964;-2.212;2023-07-29T07:35:31;7.47;;;2.40;;
22480;SDS011;11407;56.964;-2.212;2023-07-29T07:37:56;6.90;;;2.27;;
22480;SDS011;11407;56.964;-2.212;2023-07-29T07:40:23;4.13;;;2.23;;
22480;SDS011;11407;56.964;-2.212;2023-07-29T07:42:49;5.53;;;2.10;;
22480;SDS011;11407;56.964;-2.212;2023-07-29T07:45:14;4.57;;;2.20;;
22480;SDS011;11407;56.964;-2.212;2023-07-29T07:47:39;6.37;;;2.30;;
22480;SDS011;11407;56.964;-2.212;2023-07-29T07:50:04;5.07;;;2.13;;
22480;SDS011;11407;56.964;-2.212;2023-07-29T07:52:30;8.07;;;2.13;;
22480;SDS011;11407;56.964;-2.212;2023-07-29T07:54:55;5.93;;;2.63;;
22480;SDS011;11407;56.964;-2.212;2023-07-29T07:57:21;4.00;;;1.83;;
22480;SDS011;11407;56.964;-2.212;2023-07-29T07:59:46;3.43;;;1.80;;
22480;SDS011;11407;56.964;-2.212;2023-07-29T08:02:12;5.70;;;2.13;;
22480;SDS011;11407;56.964;-2.212;2023-07-29T08:04:37;5.57;;;2.13;;
22480;SDS011;11407;56.964;-2.212;2023-07-29T08:07:02;5.13;;;1.93;;
22480;SDS011;11407;56.964;-2.212;2023-07-29T08:09:27;3.90;;;1.80;;
22480;SDS011;11407;56.964;-2.212;2023-07-29T08:11:53;5.13;;;2.00;;
22480;SDS011;11407;56.964;-2.212;2023-07-29T08:14:18;4.53;;;2.00;;
22480;SDS011;11407;56.964;-2.212;2023-07-29T08:16:43;7.43;;;2.13;;
22480;SDS011;11407;56.964;-2.212;2023-07-29T08:19:08;6.47;;;2.17;;
22480;SDS011;11407;56.964;-2.212;2023-07-29T08:21:34;5.00;;;1.90;;
22480;SDS011;11407;56.964;-2.212;2023-07-29T08:24:00;3.93;;;2.07;;
22480;SDS011;11407;56.964;-2.212;2023-07-29T08:26:25;4.37;;;1.90;;
22480;SDS011;11407;56.964;-2.212;2023-07-29T08:28:50;7.93;;;2.07;;
22480;SDS011;11407;56.964;-2.212;2023-07-29T08:31:16;4.43;;;1.63;;
22480;SDS011;11407;56.964;-2.212;2023-07-29T08:33:41;3.17;;;1.60;;
22480;SDS011;11407;56.964;-2.212;2023-07-29T08:36:06;3.40;;;1.53;;
22480;SDS011;11407;56.964;-2.212;2023-07-29T08:38:31;1.63;;;1.23;;
22480;SDS011;11407;56.964;-2.212;2023-07-29T08:40:58;4.07;;;1.60;;
22480;SDS011;11407;56.964;-2.212;2023-07-29T08:43:33;2.57;;;1.20;;
22480;SDS011;11407;56.964;-2.212;2023-07-29T08:45:59;1.83;;;1.20;;
22480;SDS011;11407;56.964;-2.212;2023-07-29T08:48:41;1.43;;;1.33;;
22480;SDS011;11407;56.964;-2.212;2023-07-29T08:51:09;2.27;;;1.60;;
22480;SDS011;11407;56.964;-2.212;2023-07-29T08:53:35;2.03;;;1.40;;
22480;SDS011;11407;56.964;-2.212;2023-07-29T08:56:01;10.10;;;6.13;;
22480;SDS011;11407;56.964;-2.212;2023-07-29T08:58:26;3.63;;;2.07;;
22480;SDS011;11407;56.964;-2.212;2023-07-29T09:00:52;3.13;;;1.83;;
22480;SDS011;11407;56.964;-2.212;2023-07-29T09:03:17;2.87;;;2.10;;
22480;SDS011;11407;56.964;-2.212;2023-07-29T09:05:42;1.97;;;1.50;;
22480;SDS011;11407;56.964;-2.212;2023-07-29T09:08:08;1.93;;;1.40;;
22480;SDS011;11407;56.964;-2.212;2023-07-29T09:10:36;2.47;;;1.40;;
22480;SDS011;11407;56.964;-2.212;2023-07-29T09:13:02;3.80;;;1.33;;
22480;SDS011;11407;56.964;-2.212;2023-07-29T09:15:31;2.60;;;1.40;;
22480;SDS011;11407;56.964;-2.212;2023-07-29T09:17:57;3.03;;;1.20;;
22480;SDS011;11407;56.964;-2.212;2023-07-29T09:20:26;1.33;;;1.03;;
22480;SDS011;11407;56.964;-2.212;2023-07-29T09:22:52;2.17;;;1.03;;
22480;SDS011;11407;56.964;-2.212;2023-07-29T09:25:22;1.90;;;1.10;;
22480;SDS011;11407;56.964;-2.212;2023-07-29T09:27:47;3.87;;;2.00;;
22480;SDS011;11407;56.964;-2.212;2023-07-29T09:30:16;1.60;;;1.20;;
22480;SDS011;11407;56.964;-2.212;2023-07-29T09:32:41;3.00;;;1.30;;
22480;SDS011;11407;56.964;-2.212;2023-07-29T09:35:11;2.20;;;1.30;;
22480;SDS011;11407;56.964;-2.212;2023-07-29T09:37:37;2.87;;;1.40;;
22480;SDS011;11407;56.964;-2.212;2023-07-29T09:40:02;2.43;;;1.20;;
22480;SDS011;11407;56.964;-2.212;2023-07-29T09:42:28;2.37;;;1.30;;
22480;SDS011;11407;56.964;-2.212;2023-07-29T09:44:53;1.50;;;1.40;;
22480;SDS011;11407;56.964;-2.212;2023-07-29T09:47:22;2.80;;;1.40;;
22480;SDS011;11407;56.964;-2.212;2023-07-29T09:49:48;1.87;;;1.50;;
22480;SDS011;11407;56.964;-2.212;2023-07-29T09:52:14;1.90;;;1.30;;
22480;SDS011;11407;56.964;-2.212;2023-07-29T09:54:39;2.53;;;1.50;;
22480;SDS011;11407;56.964;-2.212;2023-07-29T09:57:06;1.43;;;1.30;;
22480;SDS011;11407;56.964;-2.212;2023-07-29T09:59:35;2.77;;;1.30;;
22480;SDS011;11407;56.964;-2.212;2023-07-29T10:02:00;2.70;;;1.70;;
22480;SDS011;11407;56.964;-2.212;2023-07-29T10:04:26;1.87;;;1.40;;
22480;SDS011;11407;56.964;-2.212;2023-07-29T10:06:52;1.63;;;1.20;;
22480;SDS011;11407;56.964;-2.212;2023-07-29T10:09:17;1.60;;;1.10;;
22480;SDS011;11407;56.964;-2.212;2023-07-29T10:11:44;3.73;;;1.30;;
22480;SDS011;11407;56.964;-2.212;2023-07-29T10:14:09;3.93;;;1.57;;
22480;SDS011;11407;56.964;-2.212;2023-07-29T10:16:36;3.47;;;1.40;;
22480;SDS011;11407;56.964;-2.212;2023-07-29T10:19:01;3.23;;;1.33;;
22480;SDS011;11407;56.964;-2.212;2023-07-29T10:21:26;3.63;;;1.63;;
22480;SDS011;11407;56.964;-2.212;2023-07-29T10:23:53;1.90;;;1.30;;
22480;SDS011;11407;56.964;-2.212;2023-07-29T10:26:19;3.63;;;1.50;;
22480;SDS011;11407;56.964;-2.212;2023-07-29T10:28:46;1.87;;;1.33;;
22480;SDS011;11407;56.964;-2.212;2023-07-29T10:31:12;3.57;;;1.70;;
22480;SDS011;11407;56.964;-2.212;2023-07-29T10:33:37;3.23;;;1.40;;
22480;SDS011;11407;56.964;-2.212;2023-07-29T10:36:05;3.13;;;1.37;;
22480;SDS011;11407;56.964;-2.212;2023-07-29T10:38:30;2.77;;;1.20;;
22480;SDS011;11407;56.964;-2.212;2023-07-29T10:40:56;3.77;;;1.37;;
22480;SDS011;11407;56.964;-2.212;2023-07-29T10:43:25;2.53;;;1.40;;
22480;SDS011;11407;56.964;-2.212;2023-07-29T10:45:51;2.53;;;1.60;;
22480;SDS011;11407;56.964;-2.212;2023-07-29T10:51:42;2.40;;;1.33;;
22480;SDS011;11407;56.964;-2.212;2023-07-29T10:53:52;2.33;;;1.30;;
22480;SDS011;11407;56.964;-2.212;2023-07-29T10:56:24;2.67;;;1.37;;
22480;SDS011;11407;56.964;-2.212;2023-07-29T10:58:49;1.37;;;1.17;;
22480;SDS011;11407;56.964;-2.212;2023-07-29T11:01:21;1.60;;;1.40;;
22480;SDS011;11407;56.964;-2.212;2023-07-29T11:07:01;2.43;;;1.30;;
22480;SDS011;11407;56.964;-2.212;2023-07-29T11:12:50;5.63;;;1.60;;
22480;SDS011;11407;56.964;-2.212;2023-07-29T11:14:50;3.70;;;1.53;;
22480;SDS011;11407;56.964;-2.212;2023-07-29T11:17:15;4.17;;;1.50;;
22480;SDS011;11407;56.964;-2.212;2023-07-29T11:19:40;3.23;;;1.30;;
22480;SDS011;11407;56.964;-2.212;2023-07-29T11:22:06;4.07;;;1.40;;
22480;SDS011;11407;56.964;-2.212;2023-07-29T11:24:31;1.97;;;1.30;;
22480;SDS011;11407;56.964;-2.212;2023-07-29T11:26:56;3.60;;;1.37;;
22480;SDS011;11407;56.964;-2.212;2023-07-29T11:29:21;4.57;;;1.63;;
22480;SDS011;11407;56.964;-2.212;2023-07-29T11:31:47;2.07;;;1.23;;
22480;SDS011;11407;56.964;-2.212;2023-07-29T11:34:12;2.63;;;1.23;;
22480;SDS011;11407;56.964;-2.212;2023-07-29T11:36:45;3.60;;;1.60;;
22480;SDS011;11407;56.964;-2.212;2023-07-29T11:39:10;3.20;;;1.40;;
22480;SDS011;11407;56.964;-2.212;2023-07-29T11:41:36;3.17;;;1.50;;
22480;SDS011;11407;56.964;-2.212;2023-07-29T11:44:02;3.63;;;1.60;;
22480;SDS011;11407;56.964;-2.212;2023-07-29T11:46:27;2.60;;;1.73;;
22480;SDS011;11407;56.964;-2.212;2023-07-29T11:48:53;2.67;;;1.60;;
22480;SDS011;11407;56.964;-2.212;2023-07-29T11:51:19;3.50;;;1.80;;
22480;SDS011;11407;56.964;-2.212;2023-07-29T11:53:44;4.13;;;1.70;;
22480;SDS011;11407;56.964;-2.212;2023-07-29T11:56:10;3.53;;;1.50;;
22480;SDS011;11407;56.964;-2.212;2023-07-29T11:58:36;4.57;;;1.63;;
22480;SDS011;11407;56.964;-2.212;2023-07-29T12:01:01;4.67;;;1.90;;
22480;SDS011;11407;56.964;-2.212;2023-07-29T12:03:28;6.00;;;2.00;;
22480;SDS011;11407;56.964;-2.212;2023-07-29T12:05:54;5.37;;;1.77;;
22480;SDS011;11407;56.964;-2.212;2023-07-29T12:08:19;2.77;;;1.90;;
22480;SDS011;11407;56.964;-2.212;2023-07-29T12:10:44;4.90;;;1.50;;
22480;SDS011;11407;56.964;-2.212;2023-07-29T12:13:10;3.07;;;1.90;;
22480;SDS011;11407;56.964;-2.212;2023-07-29T12:15:37;3.30;;;1.83;;
22480;SDS011;11407;56.964;-2.212;2023-07-29T12:18:02;2.77;;;1.50;;
22480;SDS011;11407;56.964;-2.212;2023-07-29T12:20:29;2.33;;;1.30;;
22480;SDS011;11407;56.964;-2.212;2023-07-29T12:22:58;2.53;;;1.30;;
22480;SDS011;11407;56.964;-2.212;2023-07-29T12:25:24;3.60;;;1.20;;
22480;SDS011;11407;56.964;-2.212;2023-07-29T12:27:50;3.50;;;1.40;;
22480;SDS011;11407;56.964;-2.212;2023-07-29T12:30:16;4.87;;;1.30;;
22480;SDS011;11407;56.964;-2.212;2023-07-29T12:32:42;4.00;;;1.43;;
22480;SDS011;11407;56.964;-2.212;2023-07-29T12:35:09;2.67;;;1.27;;
22480;SDS011;11407;56.964;-2.212;2023-07-29T12:37:34;2.17;;;1.17;;
22480;SDS011;11407;56.964;-2.212;2023-07-29T12:40:00;2.23;;;1.43;;
22480;SDS011;11407;56.964;-2.212;2023-07-29T12:42:25;3.23;;;1.17;;
22480;SDS011;11407;56.964;-2.212;2023-07-29T12:44:50;5.20;;;1.53;;
22480;SDS011;11407;56.964;-2.212;2023-07-29T12:47:16;5.30;;;1.60;;
22480;SDS011;11407;56.964;-2.212;2023-07-29T12:49:41;3.37;;;1.30;;
22480;SDS011;11407;56.964;-2.212;2023-07-29T12:52:06;4.47;;;1.40;;
22480;SDS011;11407;56.964;-2.212;2023-07-29T12:54:31;5.53;;;1.47;;
22480;SDS011;11407;56.964;-2.212;2023-07-29T12:56:57;3.63;;;1.40;;
22480;SDS011;11407;56.964;-2.212;2023-07-29T12:59:22;2.80;;;1.20;;
22480;SDS011;11407;56.964;-2.212;2023-07-29T13:01:47;4.37;;;1.40;;
22480;SDS011;11407;56.964;-2.212;2023-07-29T13:04:13;4.10;;;1.50;;
22480;SDS011;11407;56.964;-2.212;2023-07-29T13:06:38;3.20;;;1.23;;
22480;SDS011;11407;56.964;-2.212;2023-07-29T13:09:03;3.43;;;1.33;;
22480;SDS011;11407;56.964;-2.212;2023-07-29T13:11:30;4.03;;;1.30;;
22480;SDS011;11407;56.964;-2.212;2023-07-29T13:13:57;3.03;;;1.40;;
22480;SDS011;11407;56.964;-2.212;2023-07-29T13:16:22;3.37;;;1.33;;
22480;SDS011;11407;56.964;-2.212;2023-07-29T13:18:47;4.47;;;1.40;;
22480;SDS011;11407;56.964;-2.212;2023-07-29T13:21:13;4.80;;;1.57;;
22480;SDS011;11407;56.964;-2.212;2023-07-29T13:23:38;3.97;;;1.43;;
22480;SDS011;11407;56.964;-2.212;2023-07-29T13:26:03;3.57;;;1.50;;
22480;SDS011;11407;56.964;-2.212;2023-07-29T13:28:28;4.53;;;1.33;;
22480;SDS011;11407;56.964;-2.212;2023-07-29T13:30:54;2.63;;;1.33;;
22480;SDS011;11407;56.964;-2.212;2023-07-29T13:33:19;4.87;;;1.30;;
22480;SDS011;11407;56.964;-2.212;2023-07-29T13:35:44;4.13;;;1.43;;
22480;SDS011;11407;56.964;-2.212;2023-07-29T13:38:10;4.50;;;1.37;;
22480;SDS011;11407;56.964;-2.212;2023-07-29T13:40:36;4.63;;;1.40;;
22480;SDS011;11407;56.964;-2.212;2023-07-29T13:43:01;3.27;;;1.40;;
22480;SDS011;11407;56.964;-2.212;2023-07-29T13:45:26;2.70;;;1.10;;
22480;SDS011;11407;56.964;-2.212;2023-07-29T13:47:51;3.73;;;1.23;;
22480;SDS011;11407;56.964;-2.212;2023-07-29T13:50:17;6.43;;;1.63;;
22480;SDS011;11407;56.964;-2.212;2023-07-29T13:52:43;5.00;;;1.50;;
22480;SDS011;11407;56.964;-2.212;2023-07-29T13:55:08;4.13;;;1.33;;
22480;SDS011;11407;56.964;-2.212;2023-07-29T13:57:33;4.70;;;1.50;;
22480;SDS011;11407;56.964;-2.212;2023-07-29T13:59:59;3.60;;;1.50;;
22480;SDS011;11407;56.964;-2.212;2023-07-29T14:02:24;8.37;;;1.50;;
22480;SDS011;11407;56.964;-2.212;2023-07-29T14:04:51;6.53;;;1.53;;
22480;SDS011;11407;56.964;-2.212;2023-07-29T14:07:16;5.53;;;1.40;;
22480;SDS011;11407;56.964;-2.212;2023-07-29T14:09:42;4.83;;;1.50;;
22480;SDS011;11407;56.964;-2.212;2023-07-29T14:12:08;4.40;;;1.50;;
22480;SDS011;11407;56.964;-2.212;2023-07-29T14:14:37;3.63;;;1.50;;
22480;SDS011;11407;56.964;-2.212;2023-07-29T14:17:02;8.00;;;2.00;;
22480;SDS011;11407;56.964;-2.212;2023-07-29T14:19:27;4.37;;;1.47;;
22480;SDS011;11407;56.964;-2.212;2023-07-29T14:21:53;5.20;;;1.50;;
22480;SDS011;11407;56.964;-2.212;2023-07-29T14:24:18;4.83;;;1.43;;
22480;SDS011;11407;56.964;-2.212;2023-07-29T14:26:44;3.67;;;1.40;;
22480;SDS011;11407;56.964;-2.212;2023-07-29T14:29:10;4.97;;;1.50;;
22480;SDS011;11407;56.964;-2.212;2023-07-29T14:31:35;4.57;;;1.13;;
22480;SDS011;11407;56.964;-2.212;2023-07-29T14:34:00;5.53;;;1.87;;
22480;SDS011;11407;56.964;-2.212;2023-07-29T14:36:25;4.23;;;1.50;;